Time;durP1;ratioP1;P1;durP2;ratioP2;P2;SDS_P1;SDS_P2;PMS_P1;PMS_P2;Temp;Humidity;BMP_temperature;BMP_pressure;BME280_temperature;BME280_humidity;BME280_pressure;Samples;Min_cycle;Max_cycle;Signal;HPM_P1;HPM_P2
2021/11/12 00:13:19;;;;;;;23.80;8.32;;;6.60;78.50;;;5.83;64.44;95473.38;4971638;28;20246;-88
2021/11/12 00:15:53;;;;;;;29.02;8.35;;;6.60;78.50;;;5.80;64.93;95463.22;4942520;28;20286;-89
2021/11/12 00:18:27;;;;;;;26.55;8.65;;;6.60;78.60;;;5.79;65.02;95472.03;4923468;28;20223;-89
2021/11/12 00:20:57;;;;;;;26.85;8.15;;;6.60;78.80;;;5.80;64.84;95473.66;4955027;29;20203;-88
2021/11/12 00:23:30;;;;;;;27.88;7.88;;;6.60;78.60;;;5.80;64.95;95469.28;4936281;28;20215;-88
2021/11/12 00:25:58;;;;;;;36.55;8.25;;;6.60;79.50;;;5.74;64.76;95454.25;4941778;28;20190;-88
2021/11/12 00:28:29;;;;;;;21.63;8.02;;;6.60;78.60;;;5.81;64.88;95463.09;4942063;28;20234;-89
2021/11/12 00:31:44;;;;;;;21.85;7.75;;;6.60;78.70;;;5.80;64.89;95461.47;4939185;29;20188;-88
2021/11/12 00:34:04;;;;;;;35.28;8.32;;;6.60;78.70;;;5.80;64.96;95460.63;4954767;28;20269;-88
2021/11/12 00:39:42;;;;;;;37.15;7.95;;;6.60;78.60;;;5.75;64.96;95459.31;4959313;28;20225;-89
2021/11/12 00:45:03;;;;;;;32.40;7.88;;;6.50;78.60;;;5.76;64.90;95460.94;4939420;29;20229;-88
2021/11/12 00:47:54;;;;;;;30.00;7.65;;;6.50;78.60;;;5.76;64.81;95462.72;4941431;29;20203;-89
2021/11/12 00:55:27;;;;;;;26.70;7.53;;;6.60;78.80;;;5.76;64.75;95462.72;4942930;28;20222;-89
2021/11/12 00:57:57;;;;;;;35.88;8.07;;;6.50;78.80;;;5.73;64.90;95457.81;4957791;28;20652;-88
2021/11/12 01:00:26;;;;;;;41.53;8.00;;;6.50;79.50;;;5.72;64.74;95466.59;4925720;28;20265;-88
2021/11/12 01:02:55;;;;;;;39.75;7.07;;;6.60;78.80;;;5.73;64.95;95465.63;4941838;28;20214;-89
2021/11/12 01:05:23;;;;;;;42.00;7.65;;;6.60;78.70;;;5.72;64.91;95456.97;4941948;28;20203;-89
2021/11/12 01:07:50;;;;;;;72.30;8.00;;;6.50;78.70;;;5.73;64.89;95463.84;4941591;28;20207;-88
2021/11/12 01:10:19;;;;;;;47.53;7.53;;;6.50;78.70;;;5.72;64.98;95456.97;4941967;28;20289;-88
2021/11/12 01:12:50;;;;;;;32.53;7.13;;;6.50;78.80;;;5.75;64.83;95461.91;4957378;28;20191;-88
2021/11/12 01:15:19;;;;;;;32.90;7.22;;;6.50;78.70;;;5.74;64.99;95464.66;4941440;28;20668;-89
2021/11/12 01:17:48;;;;;;;50.22;7.85;;;6.50;78.70;;;5.73;64.91;95460.41;4941256;28;20593;-89
2021/11/12 01:20:17;;;;;;;40.55;7.22;;;6.50;78.70;;;5.73;64.77;95456.03;4941331;28;20222;-89
2021/11/12 01:22:46;;;;;;;41.13;8.25;;;6.50;78.80;;;5.74;65.13;95460.28;4953892;29;20198;-89
2021/11/12 01:25:16;;;;;;;43.78;7.32;;;6.50;78.80;;;5.74;64.87;95462.06;4938216;29;20294;-87
2021/11/12 01:27:44;;;;;;;31.73;7.20;;;6.50;78.80;;;5.74;65.05;95456.84;4941680;28;20202;-88
2021/11/12 01:30:14;;;;;;;35.15;7.03;;;6.50;78.70;;;5.72;65.23;95454.38;4941676;28;20684;-89
2021/11/12 01:32:43;;;;;;;33.35;7.35;;;6.50;78.90;;;5.74;64.94;95455.06;4956990;28;20265;-89
2021/11/12 01:35:12;;;;;;;37.65;7.13;;;6.50;78.90;;;5.71;64.95;95455.38;4922220;29;20230;-89
2021/11/12 01:37:42;;;;;;;18.88;6.80;;;6.50;78.80;;;5.76;64.99;95454.91;4923234;29;20638;-88
2021/11/12 01:40:18;;;;;;;35.70;6.85;;;6.50;78.90;;;5.72;64.69;95445.78;4936970;28;20250;-89
2021/11/12 01:43:10;;;;;;;39.15;7.35;;;6.50;78.80;;;5.74;64.83;95444.66;4956738;28;20523;-88
2021/11/12 01:48:49;;;;;;;30.50;6.47;;;6.50;78.80;;;5.71;64.90;95444.13;4959032;28;20233;-89
2021/11/12 01:59:11;;;;;;;33.10;6.63;;;6.50;78.70;;;5.64;65.16;95446.53;4957496;28;20222;-88
2021/11/12 02:01:48;;;;;;;26.45;6.38;;;6.50;78.70;;;5.63;65.16;95444.03;4940988;28;20290;-88
2021/11/12 02:04:28;;;;;;;25.80;6.75;;;6.50;78.90;;;5.64;64.97;95446.53;4922914;29;20230;-89
2021/11/12 02:06:57;;;;;;;31.35;7.00;;;6.50;78.80;;;5.65;65.30;95444.72;4938069;29;20199;-88
2021/11/12 02:09:26;;;;;;;26.65;6.57;;;6.40;78.80;;;5.65;65.02;95434.31;4936510;28;20226;-89
2021/11/12 02:12:18;;;;;;;47.47;5.65;;;6.40;78.80;;;5.65;65.04;95439.50;4938183;29;20713;-88
2021/11/12 02:14:47;;;;;;;50.50;7.13;;;6.40;79.00;;;5.62;64.96;95440.63;4956522;28;20230;-89
2021/11/12 02:19:51;;;;;;;17.48;6.25;;;6.40;78.80;;;5.64;65.04;95432.66;4944186;28;20223;-89
2021/11/12 02:22:21;;;;;;;44.80;7.22;;;6.40;78.90;;;5.65;65.11;95429.94;4924006;29;20656;-88
2021/11/12 02:24:54;;;;;;;40.65;6.95;;;6.40;79.70;;;5.65;65.24;95431.72;4943949;28;20222;-88
2021/11/12 02:27:27;;;;;;;45.15;7.38;;;6.40;78.90;;;5.66;65.01;95431.56;4944647;28;20203;-89
2021/11/12 02:29:55;;;;;;;48.53;7.57;;;6.40;78.90;;;5.65;65.07;95431.72;4945058;28;20226;-88
2021/11/12 02:32:27;;;;;;;36.20;7.18;;;6.40;78.90;;;5.66;65.12;95421.16;4943444;28;20572;-88
2021/11/12 02:34:59;;;;;;;19.70;6.82;;;6.40;78.90;;;5.67;65.26;95424.59;4942669;28;20227;-88
2021/11/12 02:37:34;;;;;;;39.20;7.28;;;6.40;79.00;;;5.68;65.31;95421.00;4944220;28;20191;-88
2021/11/12 02:40:03;;;;;;;27.05;7.00;;;6.40;79.10;;;5.68;65.30;95421.81;4944273;28;20222;-88
2021/11/12 02:42:30;;;;;;;34.22;6.78;;;6.40;79.00;;;5.68;65.12;95424.44;4959308;28;20202;-88
2021/11/12 02:44:57;;;;;;;40.17;6.30;;;6.40;79.00;;;5.70;65.38;95425.09;4939289;28;20246;-88
2021/11/12 02:47:24;;;;;;;29.02;6.82;;;6.40;79.00;;;5.71;65.06;95425.91;4924285;28;20266;-87
2021/11/12 02:49:55;;;;;;;40.53;6.50;;;6.50;79.10;;;5.71;65.08;95433.72;4931067;28;20337;-88
2021/11/12 02:52:22;;;;;;;48.58;6.75;;;6.40;79.00;;;5.67;65.01;95424.59;4945238;28;20201;-88
2021/11/12 02:54:50;;;;;;;48.72;6.03;;;6.40;79.00;;;5.67;64.95;95419.38;4934465;28;20223;-88
2021/11/12 02:57:20;;;;;;;43.20;6.88;;;6.50;79.00;;;5.71;65.32;95428.50;4937702;28;20199;-89
2021/11/12 02:59:48;;;;;;;41.00;6.85;;;6.40;78.90;;;5.67;65.16;95422.78;4958185;28;20218;-88
2021/11/12 03:02:15;;;;;;;33.10;6.30;;;6.40;78.90;;;5.69;65.23;95417.41;4940328;28;20200;-88
2021/11/12 03:04:43;;;;;;;38.10;6.80;;;6.40;78.90;;;5.68;65.29;95414.00;4941270;28;20584;-87
2021/11/12 03:07:10;;;;;;;38.05;6.40;;;6.40;79.00;;;5.66;64.92;95418.53;4941898;28;20225;-87
2021/11/12 03:09:37;;;;;;;55.20;6.72;;;6.40;79.80;;;5.65;65.16;95416.94;4942119;28;20355;-87
2021/11/12 03:12:07;;;;;;;27.23;6.10;;;6.40;79.00;;;5.67;65.26;95417.59;4941910;28;20223;-85
2021/11/12 03:14:35;;;;;;;21.58;5.85;;;6.40;79.00;;;5.67;65.35;95417.59;4938098;29;20227;-87
2021/11/12 03:17:03;;;;;;;41.72;7.25;;;6.40;79.00;;;5.68;65.01;95413.22;4907384;29;20199;-87
2021/11/12 03:19:33;;;;;;;28.85;6.05;;;6.40;79.10;;;5.66;65.11;95412.53;4940644;29;20259;-87
2021/11/12 03:22:07;;;;;;;19.13;5.90;;;6.40;79.00;;;5.63;64.96;95410.22;4943632;28;20732;-87
2021/11/12 03:24:41;;;;;;;9.45;5.30;;;6.40;78.90;;;5.63;65.17;95418.03;4959068;28;20219;-86
2021/11/12 03:27:15;;;;;;;15.25;5.30;;;6.40;78.90;;;5.58;64.84;95408.06;4927863;28;20222;-87
2021/11/12 04:17:10;;;;;;;12.63;5.47;;;6.20;79.00;;;5.41;65.44;95389.69;4945017;28;20186;-87
2021/11/12 04:18:50;;;;;;;31.17;6.20;;;6.20;79.20;;;5.54;65.19;95401.53;4923738;29;20652;-87
2021/11/12 05:11:06;;;;;;;15.10;4.22;;;6.30;79.10;;;5.51;65.41;95383.63;4943702;28;20281;-87
2021/11/12 05:46:41;;;;;;;62.78;8.15;;;6.20;79.00;;;5.43;65.21;95395.56;4941120;28;20211;-87
2021/11/12 05:57:20;;;;;;;53.05;21.08;;;6.20;79.10;;;5.42;65.82;95398.31;4947589;28;20199;-88
2021/11/12 05:59:47;;;;;;;65.63;12.90;;;6.20;79.20;;;5.36;65.32;95384.13;4944611;28;20222;-87
2021/11/12 06:02:16;;;;;;;67.68;9.90;;;6.20;79.20;;;5.43;65.34;95389.53;4944873;28;20213;-87
2021/11/12 06:04:43;;;;;;;59.72;7.18;;;6.20;79.20;;;5.42;65.45;95393.09;4945423;28;20826;-88
2021/11/12 06:07:11;;;;;;;103.65;8.93;;;6.20;79.20;;;5.41;65.53;95400.09;4945038;28;20233;-86
2021/11/12 06:09:38;;;;;;;72.25;7.38;;;6.20;79.10;;;5.42;65.56;95403.50;4943707;28;20273;-85
2021/11/12 06:12:11;;;;;;;52.72;6.95;;;6.20;79.10;;;5.39;65.48;95396.00;4944137;28;20298;-84
2021/11/12 06:14:40;;;;;;;43.60;6.88;;;6.20;79.10;;;5.42;65.37;95400.91;4944617;28;20246;-87
2021/11/12 06:17:07;;;;;;;47.60;8.02;;;6.20;79.10;;;5.41;65.37;95392.28;4943698;28;20227;-88
2021/11/12 06:19:35;;;;;;;63.25;7.13;;;6.20;79.20;;;5.45;65.74;95404.03;4936899;28;20238;-88
2021/11/12 06:22:03;;;;;;;27.30;5.70;;;6.30;80.10;;;5.45;65.50;95398.81;4943528;28;20225;-88
2021/11/12 06:24:31;;;;;;;15.88;6.45;;;6.20;79.20;;;5.44;65.44;95405.03;4943485;28;20223;-87
2021/11/12 06:26:58;;;;;;;29.23;6.32;;;6.20;79.20;;;5.44;65.41;95405.03;4942148;28;20200;-87
2021/11/12 06:29:25;;;;;;;22.75;6.43;;;6.20;79.20;;;5.43;65.51;95399.94;4940151;28;20231;-88
2021/11/12 06:31:54;;;;;;;19.40;7.22;;;6.20;79.30;;;5.46;65.43;95415.28;4948521;28;20277;-88
2021/11/12 06:34:21;;;;;;;19.77;6.40;;;6.20;79.30;;;5.42;65.66;95406.09;4947066;28;20222;-88
2021/11/12 06:36:50;;;;;;;25.33;7.10;;;6.20;79.30;;;5.49;65.42;95422.78;4949687;28;20233;-88
2021/11/12 06:39:19;;;;;;;15.95;6.40;;;6.30;79.30;;;5.49;65.46;95427.97;4954932;28;20222;-89
2021/11/12 06:52:21;;;;;;;14.25;6.28;;;6.30;79.30;;;5.47;65.44;95421.28;4947898;28;20293;-88
2021/11/12 06:54:49;;;;;;;26.27;5.28;;;6.30;79.30;;;5.48;65.42;95426.38;4934602;28;20752;-88
2021/11/12 06:57:19;;;;;;;13.57;4.25;;;6.20;79.20;;;5.44;65.44;95425.84;4944289;28;20696;-88
2021/11/12 06:59:47;;;;;;;14.32;4.15;;;6.20;79.20;;;5.44;65.66;95423.22;4946619;28;20701;-89
2021/11/12 07:02:18;;;;;;;16.60;5.10;;;6.20;79.20;;;5.51;65.68;95435.66;4940668;28;20282;-88
2021/11/12 07:04:46;;;;;;;21.50;4.93;;;6.20;79.30;;;5.52;65.60;95445.91;4938717;28;20254;-87
2021/11/12 07:07:14;;;;;;;38.35;6.25;;;6.20;79.40;;;5.54;65.60;95436.19;4935538;28;20194;-89
2021/11/12 07:09:41;;;;;;;34.67;6.22;;;6.20;79.40;;;5.56;65.61;95433.41;4939510;28;20637;-88
2021/11/12 07:12:11;;;;;;;25.38;5.28;;;6.30;79.50;;;5.61;65.58;95429.41;4950615;28;20212;-88
2021/11/12 07:14:45;;;;;;;26.02;5.28;;;6.30;79.50;;;5.63;65.52;95431.03;4955885;28;20222;-90
2021/11/12 07:17:13;;;;;;;14.35;5.15;;;6.30;79.40;;;5.65;65.52;95434.31;4941376;28;20225;-90
2021/11/12 07:19:41;;;;;;;21.05;5.47;;;6.40;79.50;;;5.66;65.22;95428.16;4925262;28;20215;-89
2021/11/12 07:22:10;;;;;;;13.45;4.63;;;6.30;79.40;;;5.66;65.49;95435.94;4938229;28;20203;-88
2021/11/12 07:24:38;;;;;;;17.63;5.45;;;6.40;79.40;;;5.63;65.20;95434.47;4952308;28;20648;-87
2021/11/12 07:27:07;;;;;;;15.63;5.07;;;6.40;79.40;;;5.66;65.63;95435.94;4953123;28;20203;-88
2021/11/12 07:29:36;;;;;;;22.02;4.65;;;6.40;79.40;;;5.70;65.30;95440.72;4937718;28;20277;-88
2021/11/12 07:32:06;;;;;;;13.73;4.60;;;6.40;79.40;;;5.71;65.45;95438.91;4954425;28;20249;-87
2021/11/12 07:34:35;;;;;;;15.15;4.40;;;6.40;79.30;;;5.72;65.19;95436.16;4933565;28;20226;-89
2021/11/12 07:37:13;;;;;;;16.70;7.63;;;6.40;79.40;;;5.74;65.44;95433.44;4925910;28;20270;-88
2021/11/12 07:42:25;;;;;;;19.23;8.95;;;6.40;79.40;;;5.76;65.69;95442.72;4942546;28;20257;-88
2021/11/12 07:47:22;;;;;;;21.77;6.57;;;6.50;79.40;;;5.79;65.77;95435.59;4938491;28;20234;-88
2021/11/12 07:49:57;;;;;;;16.88;5.28;;;6.50;79.40;;;5.83;65.49;95439.53;4939110;28;20219;-88
2021/11/12 07:52:29;;;;;;;13.57;4.13;;;6.50;79.50;;;5.84;65.50;95431.56;4940140;28;20275;-89
2021/11/12 07:54:59;;;;;;;8.70;4.38;;;6.50;79.40;;;5.87;65.31;95433.03;4956403;28;20226;-89
2021/11/12 07:57:26;;;;;;;13.60;3.72;;;6.50;79.40;;;5.89;65.51;95439.72;4933418;28;20238;-88
2021/11/12 07:59:54;;;;;;;11.73;3.97;;;6.60;79.50;;;5.90;65.51;95438.78;4949348;28;20238;-89
2021/11/12 08:02:22;;;;;;;9.65;3.97;;;6.60;79.40;;;5.93;65.56;95438.47;4947613;28;20221;-89
2021/11/12 08:04:56;;;;;;;12.25;4.10;;;6.60;79.40;;;5.93;65.50;95435.03;4934266;28;20245;-89
2021/11/12 08:07:25;;;;;;;13.90;4.55;;;6.60;79.30;;;5.88;65.52;95413.84;4929335;28;20312;-89
2021/11/12 08:09:57;;;;;;;10.52;4.25;;;6.60;79.40;;;5.98;65.52;95418.97;4930885;28;20211;-90
2021/11/12 08:12:28;;;;;;;16.27;3.80;;;6.60;79.30;;;5.96;65.59;95420.91;4939052;28;20194;-89
2021/11/12 08:19:57;;;;;;;24.73;4.15;;;6.60;79.30;;;6.06;65.25;95434.72;4941283;28;20234;-88
2021/11/12 08:38:20;;;;;;;14.50;4.38;;;6.80;79.50;;;6.26;65.28;95419.69;4957753;28;20207;-87
2021/11/12 08:43:33;;;;;;;6.03;4.07;;;6.90;79.50;;;6.24;65.28;95413.84;4938807;28;20233;-88
2021/11/12 08:51:11;;;;;;;6.80;4.25;;;7.00;79.60;;;6.40;65.48;95419.16;4956363;28;20242;-88
2021/11/12 08:53:39;;;;;;;8.43;5.10;;;7.00;79.60;;;6.46;65.40;95411.69;4936185;28;20249;-88
2021/11/12 08:56:12;;;;;;;9.65;4.90;;;7.00;79.60;;;6.50;65.45;95408.63;4945921;28;20215;-86
2021/11/12 08:58:44;;;;;;;8.65;5.50;;;7.10;79.60;;;6.51;65.43;95407.66;4947984;28;20277;-87
2021/11/12 09:01:12;;;;;;;11.50;4.95;;;7.10;79.50;;;6.55;65.42;95402.94;4953109;28;20203;-87
2021/11/12 09:03:40;;;;;;;8.52;5.13;;;7.20;79.60;;;6.57;65.41;95406.22;4939414;28;20222;-86
2021/11/12 09:06:08;;;;;;;11.43;6.00;;;7.20;79.50;;;6.58;65.33;95402.66;4954037;28;20203;-87
2021/11/12 09:08:37;;;;;;;10.80;6.07;;;7.20;79.60;;;6.62;65.35;95403.97;4947710;28;20243;-87
2021/11/12 09:11:07;;;;;;;13.13;5.60;;;7.20;79.50;;;6.66;65.07;95402.69;4944952;28;20198;-87
2021/11/12 09:13:59;;;;;;;10.80;5.97;;;7.20;79.50;;;6.70;65.24;95401.41;4937251;28;20242;-87
2021/11/12 09:16:35;;;;;;;14.02;6.50;;;7.40;79.60;;;6.74;65.16;95396.72;4957760;28;20254;-88
2021/11/12 09:19:04;;;;;;;11.02;5.72;;;7.30;79.60;;;6.75;65.30;95390.53;4939945;28;20905;-87
2021/11/12 09:21:33;;;;;;;10.63;6.93;;;7.30;79.60;;;6.81;65.48;95389.91;4961980;28;20261;-87
2021/11/12 09:24:04;;;;;;;11.20;6.43;;;7.40;79.60;;;6.82;65.34;95383.72;4937193;28;20222;-86
2021/11/12 09:26:36;;;;;;;13.38;6.70;;;7.40;79.70;;;6.85;65.32;95380.78;4941957;28;20195;-87
2021/11/12 09:29:10;;;;;;;10.57;6.35;;;7.40;79.60;;;6.87;65.23;95386.66;4936177;28;20219;-88
2021/11/12 09:31:39;;;;;;;9.82;6.50;;;7.40;79.60;;;6.89;65.10;95384.69;4951718;28;20206;-86
2021/11/12 09:34:10;;;;;;;11.20;7.13;;;7.50;79.60;;;6.92;65.19;95386.19;4942896;28;20314;-86
2021/11/12 09:36:38;;;;;;;18.35;7.53;;;7.50;79.60;;;6.93;65.01;95377.38;4942452;28;20673;-87
2021/11/12 09:39:09;;;;;;;14.23;7.80;;;7.50;79.50;;;6.95;64.94;95366.81;4931367;28;20223;-88
2021/11/12 09:41:37;;;;;;;13.98;7.97;;;7.60;79.50;;;6.95;65.32;95370.22;4958033;28;20212;-88
2021/11/12 09:44:06;;;;;;;16.48;8.65;;;7.60;79.50;;;6.95;65.09;95366.81;4944411;28;20222;-86
2021/11/12 09:46:35;;;;;;;20.00;8.88;;;7.60;79.40;;;6.93;65.01;95355.72;4940234;28;20648;-87
2021/11/12 09:49:03;;;;;;;13.80;7.88;;;7.60;80.20;;;6.96;65.31;95361.44;4942350;28;20313;-87
2021/11/12 09:51:31;;;;;;;14.60;7.97;;;7.60;79.30;;;6.98;64.91;95356.03;4943368;28;20217;-86
2021/11/12 09:53:59;;;;;;;17.00;8.07;;;7.60;79.40;;;6.99;65.09;95352.47;4952137;28;20697;-88
2021/11/12 09:56:32;;;;;;;17.70;8.48;;;7.60;79.40;;;7.00;64.99;95344.47;4942421;28;20696;-88
2021/11/12 09:59:01;;;;;;;21.25;9.77;;;7.60;79.40;;;7.00;65.04;95346.28;4934369;28;20731;-88
2021/11/12 10:01:36;;;;;;;23.95;8.88;;;7.60;79.40;;;7.01;65.18;95338.28;4936902;28;20225;-87
2021/11/12 10:04:05;;;;;;;24.15;8.95;;;7.60;79.40;;;7.04;65.05;95335.38;4952439;28;20309;-88
2021/11/12 10:06:41;;;;;;;25.40;8.75;;;7.60;79.40;;;7.05;65.39;95329.19;4961716;28;20199;-88
2021/11/12 10:09:19;;;;;;;38.28;8.88;;;7.70;79.50;;;7.09;65.32;95327.06;4959821;28;20284;-85
2021/11/12 10:11:57;;;;;;;24.25;8.23;;;7.70;79.60;;;7.11;65.16;95326.91;4964269;28;20209;-87
2021/11/12 10:14:40;;;;;;;18.10;9.32;;;7.70;79.60;;;7.11;65.16;95325.09;4939726;28;20218;-87
2021/11/12 10:17:10;;;;;;;21.30;10.13;;;7.70;79.60;;;7.11;65.46;95330.31;4946021;28;20235;-87
2021/11/12 10:19:53;;;;;;;22.35;9.35;;;7.70;79.50;;;7.12;65.00;95326.75;4957012;28;20792;-88
2021/11/12 10:22:30;;;;;;;24.88;8.90;;;7.70;79.50;;;7.13;65.35;95319.72;4972418;28;20586;-88
2021/11/12 10:24:57;;;;;;;17.17;9.25;;;7.70;79.50;;;7.11;65.19;95314.69;4954338;28;20218;-87
2021/11/12 10:27:31;;;;;;;30.90;8.98;;;7.80;80.20;;;7.10;65.37;95304.41;4939314;28;20226;-88
2021/11/12 10:30:11;;;;;;;18.45;8.80;;;7.80;79.50;;;7.16;65.41;95307.19;4947533;28;20229;-88
2021/11/12 10:32:41;;;;;;;16.38;8.60;;;7.70;79.50;;;7.20;65.40;95305.06;4957186;28;20239;-89
2021/11/12 10:35:20;;;;;;;17.60;8.40;;;7.80;79.60;;;7.22;65.10;95295.28;4959131;28;20266;-88
2021/11/12 10:37:48;;;;;;;21.30;9.30;;;7.80;79.70;;;7.19;65.77;95283.41;4968069;28;20230;-88
2021/11/12 10:40:23;;;;;;;20.80;8.30;;;7.80;79.50;;;7.22;64.81;95279.63;4939014;28;20224;-89
2021/11/12 10:42:54;;;;;;;19.95;8.93;;;7.80;79.50;;;7.22;65.28;95280.44;4961904;28;20198;-87
2021/11/12 10:45:36;;;;;;;22.35;8.45;;;7.90;79.70;;;7.30;65.15;95281.44;4929854;28;20210;-88
2021/11/12 10:48:07;;;;;;;16.77;8.32;;;7.80;79.60;;;7.30;65.40;95281.44;4959702;28;20272;-87
2021/11/12 10:50:41;;;;;;;21.10;8.38;;;7.80;79.70;;;7.34;65.36;95277.53;4946193;28;20298;-87
2021/11/12 10:53:16;;;;;;;20.80;8.77;;;7.90;79.80;;;7.31;64.97;95263.03;4941002;28;20199;-88
2021/11/12 10:55:58;;;;;;;39.63;8.95;;;7.90;79.80;;;7.35;65.35;95272.16;4931756;28;20211;-87
2021/11/12 10:58:25;;;;;;;22.02;8.73;;;8.00;79.70;;;7.34;65.25;95272.31;4930897;28;20237;-89
2021/11/12 11:00:53;;;;;;;25.45;7.82;;;8.00;79.70;;;7.35;65.20;95264.31;4934634;28;20375;-88
2021/11/12 11:03:23;;;;;;;28.35;8.82;;;7.90;79.60;;;7.35;65.30;95266.94;4961907;28;20562;-88
2021/11/12 11:05:55;;;;;;;26.85;7.85;;;8.00;79.60;;;7.35;65.36;95260.91;4937877;28;20639;-87
2021/11/12 11:08:32;;;;;;;25.30;7.50;;;8.00;79.60;;;7.33;65.41;95257.63;4941753;28;20215;-87
2021/11/12 11:11:06;;;;;;;29.75;7.82;;;8.00;79.50;;;7.34;65.33;95260.06;4939721;29;20207;-88
2021/11/12 11:13:43;;;;;;;29.67;7.90;;;8.00;79.50;;;7.35;65.19;95258.31;4959152;28;20222;-88
2021/11/12 11:16:20;;;;;;;13.80;7.07;;;8.00;79.50;;;7.35;65.45;95242.66;4957037;28;20199;-88
2021/11/12 11:18:54;;;;;;;22.95;7.72;;;8.00;79.50;;;7.35;65.54;95248.66;4957980;28;20218;-88
2021/11/12 11:23:53;;;;;;;15.75;6.55;;;8.00;79.50;;;7.35;65.44;95233.00;4943054;28;20325;-87
2021/11/12 11:26:28;;;;;;;10.73;6.60;;;8.00;79.60;;;7.39;65.36;95230.88;4943263;28;20230;-87
2021/11/12 11:29:02;;;;;;;16.80;6.93;;;8.00;79.70;;;7.42;65.58;95229.75;4959221;28;20215;-88
2021/11/12 11:31:31;;;;;;;24.38;7.57;;;8.00;79.70;;;7.42;65.49;95224.53;4959063;28;20716;-87
2021/11/12 11:34:00;;;;;;;27.52;7.22;;;8.00;79.80;;;7.49;65.61;95220.28;4942926;28;20229;-88
2021/11/12 11:36:32;;;;;;;29.10;7.18;;;8.00;79.80;;;7.50;65.56;95220.09;4927319;28;20203;-88
2021/11/12 11:39:05;;;;;;;25.35;7.47;;;8.10;79.80;;;7.49;65.44;95218.47;4942518;28;20701;-89
2021/11/12 11:41:33;;;;;;;26.48;6.88;;;8.10;79.70;;;7.50;65.34;95224.53;4955953;28;20203;-88
2021/11/12 11:44:01;;;;;;;25.13;6.80;;;8.10;79.70;;;7.49;65.43;95218.47;4958522;28;20313;-89
2021/11/12 11:46:34;;;;;;;26.42;6.45;;;8.10;79.70;;;7.52;65.36;95225.97;4948937;28;20282;-90
2021/11/12 11:49:09;;;;;;;37.03;7.45;;;8.10;79.70;;;7.52;65.26;95212.13;4931885;28;20238;-89
2021/11/12 11:52:00;;;;;;;42.08;7.65;;;8.10;79.60;;;7.52;65.16;95210.31;4939215;28;20209;-88
2021/11/12 11:54:35;;;;;;;27.10;6.78;;;8.10;79.80;;;7.53;65.03;95206.75;4940945;28;20231;-88
2021/11/12 11:57:16;;;;;;;18.58;7.25;;;8.10;79.60;;;7.52;65.15;95212.13;4957321;28;20218;-88
2021/11/12 11:59:45;;;;;;;19.20;7.07;;;8.10;79.70;;;7.53;65.30;95208.50;4943010;28;20249;-89
2021/11/12 12:02:16;;;;;;;32.95;7.10;;;8.10;79.60;;;7.52;65.29;95199.88;4924617;28;20200;-89
2021/11/12 12:04:49;;;;;;;19.38;7.07;;;8.20;79.70;;;7.54;65.39;95207.53;4945855;28;20257;-89
2021/11/12 12:07:42;;;;;;;40.50;6.97;;;8.20;79.70;;;7.57;65.21;95211.63;4932806;28;20246;-90
2021/11/12 12:10:27;;;;;;;40.65;7.32;;;8.20;79.80;;;7.56;65.13;95205.59;4962584;28;20211;-88
2021/11/12 12:13:04;;;;;;;27.17;7.05;;;8.20;79.70;;;7.56;65.42;95200.38;4963786;28;20191;-89
2021/11/12 12:15:35;;;;;;;29.42;7.55;;;8.20;79.60;;;7.56;65.26;95199.56;4940603;28;20653;-89
2021/11/12 12:18:14;;;;;;;26.98;7.72;;;8.20;79.60;;;7.51;65.62;95179.97;4964646;28;20211;-89
2021/11/12 12:21:37;;;;;;;24.88;7.60;;;8.10;79.60;;;7.58;65.21;95189.75;4958946;28;20198;-88
2021/11/12 12:33:27;;;;;;;28.27;8.10;;;8.20;79.50;;;7.57;65.50;95188.13;4944279;28;20223;-89
2021/11/12 13:25:58;;;;;;;43.65;11.93;;;8.00;79.50;;;7.28;65.29;95143.31;4956177;28;20249;-90
2021/11/12 13:28:35;;;;;;;36.28;12.18;;;8.00;79.50;;;7.31;65.37;95143.00;4941034;28;20222;-91
2021/11/12 13:31:08;;;;;;;62.70;12.10;;;8.00;79.60;;;7.29;65.54;95142.34;4941235;28;20261;-89
2021/11/12 13:33:49;;;;;;;46.90;11.45;;;8.00;79.60;;;7.26;65.49;95140.06;4941907;28;20207;-89
2021/11/12 13:36:29;;;;;;;38.70;11.27;;;8.00;79.70;;;7.25;65.31;95138.44;4957444;28;20206;-90
2021/11/12 13:38:59;;;;;;;33.13;11.38;;;8.00;79.80;;;7.21;65.84;95139.75;4940450;28;20427;-88
2021/11/12 13:41:35;;;;;;;37.55;11.70;;;8.00;79.60;;;7.19;65.80;95134.69;4960847;28;20199;-89
2021/11/12 13:44:14;;;;;;;52.42;12.75;;;7.90;79.60;;;7.18;65.71;95137.47;4952206;28;20242;-90
2021/11/12 13:46:52;;;;;;;41.45;12.02;;;7.90;79.60;;;7.14;65.58;95141.38;4964662;28;20297;-89
2021/11/12 13:49:34;;;;;;;80.65;13.90;;;7.90;79.60;;;7.11;65.68;95136.50;4948362;28;20535;-88
2021/11/12 13:52:07;;;;;;;49.63;11.63;;;7.90;79.80;;;7.09;65.86;95138.44;4967879;28;20210;-88
2021/11/12 13:54:53;;;;;;;41.08;11.50;;;7.80;79.70;;;7.07;65.85;95138.63;4927823;28;20235;-89
2021/11/12 13:57:27;;;;;;;34.42;10.73;;;7.80;79.80;;;7.05;65.64;95125.75;4959672;28;20242;-91
2021/11/12 14:00:16;;;;;;;42.80;11.43;;;7.80;79.70;;;7.05;65.87;95133.59;4940493;28;20227;-91
2021/11/12 14:03:00;;;;;;;32.17;11.00;;;7.80;80.00;;;7.01;65.85;95127.03;4947208;28;20728;-90
2021/11/12 14:05:28;;;;;;;48.97;11.88;;;7.70;79.90;;;7.04;65.73;95128.50;4940826;28;20243;-90
2021/11/12 14:08:04;;;;;;;44.22;11.57;;;7.80;79.80;;;7.04;66.00;95141.53;4944031;28;20203;-90
2021/11/12 14:10:48;;;;;;;37.15;12.35;;;7.70;79.80;;;6.99;65.95;95131.59;4963401;28;20230;-90
2021/11/12 14:13:19;;;;;;;37.38;11.55;;;7.70;79.90;;;6.97;66.03;95128.38;4944636;28;20673;-91
2021/11/12 14:16:10;;;;;;;35.80;12.10;;;7.70;79.80;;;6.96;65.98;95126.72;4944961;28;20230;-91
2021/11/12 14:18:59;;;;;;;50.78;12.00;;;7.70;80.00;;;7.00;65.81;95135.03;4961740;28;20249;-89
2021/11/12 14:21:57;;;;;;;31.42;11.18;;;7.70;79.80;;;6.98;65.92;95142.19;4952622;28;20297;-91
2021/11/12 14:24:49;;;;;;;40.67;12.88;;;7.70;80.00;;;6.97;65.99;95133.56;4961314;28;20218;-90
2021/11/12 14:27:32;;;;;;;51.85;11.98;;;7.70;80.00;;;6.96;66.17;95125.94;4942667;28;20533;-90
2021/11/12 14:30:17;;;;;;;36.08;11.80;;;7.70;79.90;;;6.96;66.02;95121.50;4945266;28;20219;-88
2021/11/12 14:33:29;;;;;;;34.78;12.23;;;7.80;80.00;;;6.95;66.01;95119.06;4955001;28;20207;-91
2021/11/12 14:36:14;;;;;;;38.35;12.25;;;7.70;80.00;;;6.92;66.11;95112.41;4963219;28;20203;-90
2021/11/12 14:39:17;;;;;;;31.90;11.05;;;7.70;79.90;;;6.90;66.14;95111.75;4948247;28;20285;-90
2021/11/12 14:45:14;;;;;;;37.33;11.93;;;7.60;80.00;;;6.81;65.97;95105.72;4948956;28;20230;-90
2021/11/12 14:48:12;;;;;;;49.90;12.60;;;7.60;80.00;;;6.75;66.42;95103.78;4942813;28;20195;-90
2021/11/12 14:50:58;;;;;;;36.67;13.30;;;7.60;79.90;;;6.73;66.43;95095.28;4947422;28;20206;-89
2021/11/12 14:56:14;;;;;;;48.97;13.18;;;7.50;79.90;;;6.65;66.15;95085.69;4956585;28;20195;-89
2021/11/12 14:58:47;;;;;;;52.67;13.68;;;7.60;79.90;;;6.67;66.61;95082.91;4945207;28;20246;-90
2021/11/12 15:01:21;;;;;;;59.10;13.18;;;7.50;80.00;;;6.63;66.26;95081.59;4944358;28;20205;-90
2021/11/12 15:03:51;;;;;;;61.75;13.02;;;7.40;80.00;;;6.56;66.73;95073.63;4944032;28;20218;-91
2021/11/12 15:06:23;;;;;;;52.83;12.88;;;7.40;79.90;;;6.60;66.70;95069.69;4940015;29;20207;-90
2021/11/12 15:09:07;;;;;;;70.97;12.73;;;7.40;80.00;;;6.61;66.55;95070.53;4960933;28;20625;-89
2021/11/12 15:11:35;;;;;;;67.57;11.75;;;7.40;80.00;;;6.53;66.55;95066.13;4926668;29;20211;-89
2021/11/12 15:14:08;;;;;;;41.50;12.35;;;7.40;80.00;;;6.56;66.58;95079.63;4944340;28;21497;-88
2021/11/12 15:16:56;;;;;;;52.53;13.10;;;7.30;80.00;;;6.55;66.67;95078.03;4949317;28;20285;-89
2021/11/12 15:19:25;;;;;;;52.42;12.55;;;7.40;80.10;;;6.56;66.42;95084.03;4943034;28;20237;-89
2021/11/12 15:22:03;;;;;;;44.30;12.32;;;7.30;80.00;;;6.57;66.30;95076.06;4942558;28;20265;-89
2021/11/12 15:25:04;;;;;;;33.47;10.65;;;7.30;80.90;;;6.57;66.55;95073.44;4945221;28;20230;-89
2021/11/12 15:27:28;;;;;;;46.13;10.77;;;7.30;80.90;;;6.55;66.49;95075.44;4961932;28;20195;-89
2021/11/12 15:30:03;;;;;;;62.03;10.57;;;7.30;80.10;;;6.55;66.35;95072.00;4928402;28;20222;-88
2021/11/12 15:32:40;;;;;;;58.53;10.90;;;7.30;80.10;;;6.54;66.72;95070.34;4942834;28;20201;-89
2021/11/12 15:35:13;;;;;;;44.63;11.05;;;7.30;80.10;;;6.48;66.45;95065.78;4937684;29;20616;-89
2021/11/12 15:48:07;;;;;;;47.38;12.07;;;7.20;80.10;;;6.46;66.37;95083.38;4960292;28;20278;-89